createdAt,value
2017-03-13T00:00:13.697Z,7.83
2017-03-13T00:01:13.677Z,7.93
2017-03-13T00:02:13.658Z,7.97
2017-03-13T00:03:13.627Z,7.93
2017-03-13T00:04:13.217Z,7.97
2017-03-13T00:05:13.565Z,7.97
2017-03-13T00:06:13.604Z,7.99
2017-03-13T00:07:13.146Z,7.91
2017-03-13T00:08:13.588Z,7.83
2017-03-13T00:09:13.115Z,7.81
2017-03-13T00:10:13.087Z,7.91
2017-03-13T00:11:13.054Z,8.01
2017-03-13T00:12:13.491Z,8.14
2017-03-13T00:13:13.023Z,8.11
2017-03-13T00:14:13.383Z,8
2017-03-13T00:15:13.359Z,7.99
2017-03-13T00:16:13.409Z,7.88
2017-03-13T00:17:13.308Z,7.86
2017-03-13T00:18:13.344Z,7.9
2017-03-13T00:19:12.884Z,7.81
2017-03-13T00:20:12.478Z,7.94
2017-03-13T00:21:13.237Z,7.91
2017-03-13T00:22:12.845Z,7.93
2017-03-13T00:23:13.216Z,7.88
2017-03-13T00:24:12.783Z,7.97
2017-03-13T00:25:12.362Z,7.78
2017-03-13T00:26:12.783Z,7.88
2017-03-13T00:27:12.309Z,7.96
2017-03-13T00:28:12.674Z,7.96
2017-03-13T00:29:12.662Z,7.97
2017-03-13T00:30:13.031Z,7.99
2017-03-13T00:31:12.662Z,7.91
2017-03-13T00:32:12.604Z,7.93
2017-03-13T00:33:13.009Z,7.99
2017-03-13T00:34:12.563Z,8.06
2017-03-13T00:35:12.997Z,7.97
2017-03-13T00:36:12.901Z,7.94
2017-03-13T00:37:12.582Z,7.88
2017-03-13T00:38:12.853Z,7.76
2017-03-13T00:39:12.438Z,7.78
2017-03-13T00:40:12.436Z,7.9
2017-03-13T00:41:12.395Z,7.91
2017-03-13T00:42:12.778Z,8
2017-03-13T00:43:12.399Z,7.94
2017-03-13T00:44:12.735Z,8.07
2017-03-13T00:45:12.347Z,8.07
2017-03-13T00:46:11.901Z,7.99
2017-03-13T00:47:12.713Z,8.01
2017-03-13T00:48:12.261Z,7.83
2017-03-13T00:49:12.242Z,7.91
2017-03-13T00:50:12.319Z,7.91
2017-03-13T00:51:12.265Z,8.14
2017-03-13T00:52:12.190Z,8.16
2017-03-13T00:53:12.591Z,8.18
2017-03-13T00:54:12.489Z,8.32
2017-03-13T00:55:12.549Z,8.39
2017-03-13T00:56:12.048Z,8.27
2017-03-13T00:57:12.567Z,7.96
2017-03-13T00:58:12.466Z,8.03
2017-03-13T00:59:12.395Z,7.99
2017-03-13T01:00:12.376Z,8.01
2017-03-13T01:01:12.363Z,8.16
2017-03-13T01:02:12.326Z,8.21
2017-03-13T01:03:12.314Z,8.12
2017-03-13T01:04:12.333Z,8.14
2017-03-13T01:05:11.877Z,8.19
2017-03-13T01:06:11.844Z,8.03
2017-03-13T01:07:12.342Z,8.12
2017-03-13T01:08:11.791Z,8.07
2017-03-13T01:09:12.163Z,8.15
2017-03-13T01:10:11.753Z,8.04
2017-03-13T01:11:12.112Z,8.16
2017-03-13T01:12:12.151Z,8.27
2017-03-13T01:13:12.072Z,8.37
2017-03-13T01:14:12.170Z,8.29
2017-03-13T01:15:12.069Z,8.37
2017-03-13T01:16:12.023Z,8.33
2017-03-13T01:17:11.606Z,8.48
2017-03-13T01:18:11.586Z,8.39
2017-03-13T01:19:11.956Z,8.3
2017-03-13T01:20:11.545Z,8.21
2017-03-13T01:21:11.905Z,8.18
2017-03-13T01:22:11.936Z,8.21
2017-03-13T01:23:11.885Z,8.22
2017-03-13T01:24:11.844Z,8.29
2017-03-13T01:25:11.042Z,8.15
2017-03-13T01:26:11.032Z,8.11
2017-03-13T01:27:11.373Z,8.06
2017-03-13T01:28:11.848Z,7.97
2017-03-13T01:29:11.730Z,8.03
2017-03-13T01:30:11.813Z,7.99
2017-03-13T01:31:11.703Z,7.96
2017-03-13T01:32:11.659Z,8.09
2017-03-13T01:33:11.645Z,7.91
2017-03-13T01:34:11.661Z,7.88
2017-03-13T01:35:11.600Z,7.85
2017-03-13T01:36:11.172Z,7.93
2017-03-13T01:37:11.178Z,7.9
2017-03-13T01:38:11.529Z,7.91
2017-03-13T01:39:11.517Z,7.99
2017-03-13T01:40:11.495Z,7.86
2017-03-13T01:41:11.074Z,7.94
2017-03-13T01:42:11.043Z,8.06
2017-03-13T01:43:11.421Z,7.97
2017-03-13T01:44:11.422Z,7.93
2017-03-13T01:45:11.390Z,8.01
2017-03-13T01:46:10.571Z,7.96
2017-03-13T01:47:11.330Z,7.88
2017-03-13T01:48:10.552Z,7.67
2017-03-13T01:49:10.910Z,7.67
2017-03-13T01:50:10.489Z,7.59
2017-03-13T01:51:10.889Z,7.78
2017-03-13T01:52:10.842Z,7.75
2017-03-13T01:53:11.208Z,7.9
2017-03-13T01:54:10.509Z,7.79
2017-03-13T01:55:10.771Z,7.79
2017-03-13T01:56:11.137Z,7.63
2017-03-13T01:57:11.116Z,7.73
2017-03-13T01:58:11.088Z,7.76
2017-03-13T01:59:10.671Z,7.67
2017-03-13T02:00:11.045Z,7.55
2017-03-13T02:01:11.032Z,7.67
2017-03-13T02:02:10.252Z,7.62
2017-03-13T02:03:10.603Z,7.55
2017-03-13T02:04:10.953Z,7.49
2017-03-13T02:05:10.947Z,7.47
2017-03-13T02:06:10.518Z,7.56
2017-03-13T02:07:10.880Z,7.68
2017-03-13T02:08:10.471Z,7.67
2017-03-13T02:09:10.459Z,7.73
2017-03-13T02:10:10.438Z,7.68
2017-03-13T02:11:10.448Z,7.64
2017-03-13T02:12:10.408Z,7.73
2017-03-13T02:13:10.747Z,7.72
2017-03-13T02:14:10.738Z,7.72
2017-03-13T02:15:10.367Z,7.57
2017-03-13T02:16:10.307Z,7.57
2017-03-13T02:17:09.885Z,7.59
2017-03-13T02:18:09.955Z,7.73
2017-03-13T02:19:10.216Z,7.73
2017-03-13T02:20:10.197Z,7.79
2017-03-13T02:21:10.569Z,7.81
2017-03-13T02:22:10.163Z,7.9
2017-03-13T02:23:10.142Z,7.83
2017-03-13T02:24:10.119Z,7.78
2017-03-13T02:25:10.102Z,7.76
2017-03-13T02:26:10.078Z,7.7
2017-03-13T02:27:10.440Z,7.76
2017-03-13T02:28:10.047Z,7.76
2017-03-13T02:29:09.998Z,7.64
2017-03-13T02:30:09.974Z,7.62
2017-03-13T02:31:10.337Z,7.68
2017-03-13T02:32:10.330Z,7.75
2017-03-13T02:33:09.918Z,7.63
2017-03-13T02:34:09.516Z,7.55
2017-03-13T02:35:09.874Z,7.55
2017-03-13T02:36:10.237Z,7.59
2017-03-13T02:37:10.222Z,7.7
2017-03-13T02:38:10.204Z,7.73
2017-03-13T02:39:09.784Z,7.63
2017-03-13T02:40:09.764Z,7.72
2017-03-13T02:41:09.744Z,7.72
2017-03-13T02:42:10.099Z,7.73
2017-03-13T02:43:09.721Z,7.72
2017-03-13T02:44:09.681Z,7.73
2017-03-13T02:45:09.642Z,7.76
2017-03-13T02:46:09.634Z,7.64
2017-03-13T02:47:10.001Z,7.67
2017-03-13T02:48:09.578Z,7.78
2017-03-13T02:49:09.190Z,7.76
2017-03-13T02:50:09.541Z,7.79
2017-03-13T02:51:09.898Z,7.75
2017-03-13T02:52:09.487Z,7.76
2017-03-13T02:53:09.487Z,7.64
2017-03-13T02:54:09.455Z,7.76
2017-03-13T02:55:09.963Z,7.68
2017-03-13T02:56:09.785Z,7.72
2017-03-13T02:57:09.384Z,7.75
2017-03-13T02:58:09.356Z,7.7
2017-03-13T02:59:09.744Z,7.68
2017-03-13T03:00:09.714Z,7.41
2017-03-13T03:01:09.664Z,7.42
2017-03-13T03:02:09.663Z,7.42
2017-03-13T03:03:09.642Z,7.53
2017-03-13T03:04:09.637Z,7.45
2017-03-13T03:05:09.587Z,7.42
2017-03-13T03:06:09.192Z,7.57
2017-03-13T03:07:09.571Z,7.55
2017-03-13T03:08:09.533Z,7.41
2017-03-13T03:09:09.217Z,7.52
2017-03-13T03:10:09.087Z,7.56
2017-03-13T03:11:08.769Z,7.44
2017-03-13T03:12:08.658Z,7.42
2017-03-13T03:13:09.426Z,7.45
2017-03-13T03:14:09.384Z,7.44
2017-03-13T03:15:09.365Z,7.48
2017-03-13T03:16:08.964Z,7.44
2017-03-13T03:17:09.055Z,7.42
2017-03-13T03:18:08.914Z,7.47
2017-03-13T03:19:08.561Z,7.52
2017-03-13T03:20:08.862Z,7.42
2017-03-13T03:21:09.242Z,7.41
2017-03-13T03:22:09.219Z,7.42
2017-03-13T03:23:09.259Z,7.37
2017-03-13T03:24:08.781Z,7.29
2017-03-13T03:25:08.851Z,7.42
2017-03-13T03:26:08.725Z,7.41
2017-03-13T03:27:09.189Z,7.31
2017-03-13T03:28:09.079Z,7.31
2017-03-13T03:29:09.042Z,7.27
2017-03-13T03:30:08.636Z,7.24
2017-03-13T03:31:08.997Z,7.29
2017-03-13T03:32:08.596Z,7.35
2017-03-13T03:33:08.990Z,7.29
2017-03-13T03:34:08.955Z,7.29
2017-03-13T03:35:09.076Z,7.39
2017-03-13T03:36:08.530Z,7.35
2017-03-13T03:37:08.866Z,7.23
2017-03-13T03:38:08.482Z,7.17
2017-03-13T03:39:08.443Z,7.14
2017-03-13T03:40:08.493Z,7.11
2017-03-13T03:41:08.767Z,7.17
2017-03-13T03:42:08.459Z,7.16
2017-03-13T03:43:08.719Z,7.17
2017-03-13T03:44:08.321Z,7.14
2017-03-13T03:45:08.679Z,7.14
2017-03-13T03:46:08.709Z,7.12
2017-03-13T03:47:08.650Z,7.17
2017-03-13T03:48:08.629Z,7.11
2017-03-13T03:49:08.672Z,7.05
2017-03-13T03:50:08.575Z,7.14
2017-03-13T03:51:08.209Z,7.08
2017-03-13T03:52:08.130Z,7.16
2017-03-13T03:53:07.736Z,7.12
2017-03-13T03:54:08.204Z,7.19
2017-03-13T03:55:08.059Z,7.04
2017-03-13T03:56:08.160Z,7.04
2017-03-13T03:57:08.502Z,7.05
2017-03-13T03:58:08.002Z,7.04
2017-03-13T03:59:08.469Z,7.01
2017-03-13T04:00:08.005Z,7.04
2017-03-13T04:01:07.922Z,7.05
2017-03-13T04:02:08.281Z,7.04
2017-03-13T04:03:07.480Z,7.08
2017-03-13T04:04:08.262Z,7.04
2017-03-13T04:05:07.440Z,7.05
2017-03-13T04:06:08.222Z,7.05
2017-03-13T04:07:08.206Z,7.06
2017-03-13T04:08:08.169Z,7.05
2017-03-13T04:09:07.751Z,7.05
2017-03-13T04:10:08.120Z,7.01
2017-03-13T04:11:07.708Z,6.98
2017-03-13T04:12:07.705Z,6.86
2017-03-13T04:13:08.031Z,6.88
2017-03-13T04:14:08.017Z,6.93
2017-03-13T04:15:07.993Z,6.86
2017-03-13T04:16:07.224Z,6.8
2017-03-13T04:17:07.978Z,6.8
2017-03-13T04:18:07.912Z,6.7
2017-03-13T04:19:07.512Z,6.57
2017-03-13T04:20:07.491Z,6.59
2017-03-13T04:21:07.454Z,6.69
2017-03-13T04:22:07.826Z,6.69
2017-03-13T04:23:07.041Z,6.7
2017-03-13T04:24:07.009Z,6.8
2017-03-13T04:25:07.781Z,6.8
2017-03-13T04:26:07.007Z,6.7
2017-03-13T04:27:07.707Z,6.57
2017-03-13T04:28:07.707Z,6.6
2017-03-13T04:29:07.692Z,6.5
2017-03-13T04:30:07.647Z,6.55
2017-03-13T04:31:07.632Z,6.62
2017-03-13T04:32:07.605Z,6.44
2017-03-13T04:33:07.205Z,6.51
2017-03-13T04:34:07.194Z,6.47
2017-03-13T04:35:07.559Z,6.3
2017-03-13T04:36:07.123Z,6.4
2017-03-13T04:37:07.102Z,6.43
2017-03-13T04:38:07.464Z,6.37
2017-03-13T04:39:07.451Z,6.22
2017-03-13T04:40:07.041Z,6.18
2017-03-13T04:41:07.400Z,6.11
2017-03-13T04:42:07.380Z,5.96
2017-03-13T04:43:07.361Z,6.16
2017-03-13T04:44:06.983Z,6.14
2017-03-13T04:45:06.918Z,6.04
2017-03-13T04:46:06.908Z,5.99
2017-03-13T04:47:07.280Z,5.86
2017-03-13T04:48:06.955Z,5.7
2017-03-13T04:49:07.216Z,5.68
2017-03-13T04:50:07.255Z,5.59
2017-03-13T04:51:07.168Z,5.67
2017-03-13T04:52:07.166Z,5.77
2017-03-13T04:53:06.715Z,5.92
2017-03-13T04:54:07.104Z,5.77
2017-03-13T04:55:07.117Z,5.52
2017-03-13T04:56:07.053Z,5.39
2017-03-13T04:57:06.663Z,5.46
2017-03-13T04:58:07.101Z,5.49
2017-03-13T04:59:06.981Z,5.42
2017-03-13T05:00:06.678Z,5.47
2017-03-13T05:01:06.659Z,5.59
2017-03-13T05:02:06.889Z,5.57
2017-03-13T05:03:06.498Z,5.59
2017-03-13T05:04:06.856Z,5.78
2017-03-13T05:05:06.828Z,5.93
2017-03-13T05:06:06.817Z,6.1
2017-03-13T05:07:06.396Z,6.16
2017-03-13T05:08:06.390Z,6.04
2017-03-13T05:09:05.966Z,5.99
2017-03-13T05:10:05.946Z,5.92
2017-03-13T05:11:06.685Z,5.96
2017-03-13T05:12:06.664Z,5.96
2017-03-13T05:13:06.299Z,5.92
2017-03-13T05:14:06.230Z,5.78
2017-03-13T05:15:06.609Z,5.8
2017-03-13T05:16:06.177Z,5.86
2017-03-13T05:17:06.172Z,5.86
2017-03-13T05:18:06.661Z,5.8
2017-03-13T05:19:06.123Z,6
2017-03-13T05:20:06.538Z,5.92
2017-03-13T05:21:05.680Z,5.95
2017-03-13T05:22:06.454Z,5.98
2017-03-13T05:23:06.398Z,5.98
2017-03-13T05:24:06.003Z,6.13
2017-03-13T05:25:06.409Z,6.1
2017-03-13T05:26:05.947Z,6.11
2017-03-13T05:27:05.938Z,6.16
2017-03-13T05:28:05.916Z,6.29
2017-03-13T05:29:05.867Z,6.3
2017-03-13T05:30:06.304Z,6.29
2017-03-13T05:31:05.446Z,6.3
2017-03-13T05:32:05.819Z,6.32
2017-03-13T05:33:05.789Z,6.29
2017-03-13T05:34:06.200Z,6.29
2017-03-13T05:35:06.142Z,6.35
2017-03-13T05:36:06.148Z,6.37
2017-03-13T05:37:05.688Z,6.41
2017-03-13T05:38:05.299Z,6.41
2017-03-13T05:39:06.048Z,6.37
2017-03-13T05:40:06.021Z,6.45
2017-03-13T05:41:05.588Z,6.35
2017-03-13T05:42:05.588Z,6.3
2017-03-13T05:43:05.945Z,6.25
2017-03-13T05:44:05.955Z,6.32
2017-03-13T05:45:05.912Z,6.29
2017-03-13T05:46:05.901Z,6.22
2017-03-13T05:47:05.063Z,6.18
2017-03-13T05:48:05.925Z,6.26
2017-03-13T05:49:05.786Z,6.17
2017-03-13T05:50:05.413Z,5.96
2017-03-13T05:51:05.354Z,5.96
2017-03-13T05:52:05.756Z,5.96
2017-03-13T05:53:05.304Z,5.99
2017-03-13T05:54:05.283Z,5.74
2017-03-13T05:55:05.284Z,5.63
2017-03-13T05:56:05.640Z,5.57
2017-03-13T05:57:05.241Z,5.49
2017-03-13T05:58:05.589Z,5.49
2017-03-13T05:59:05.212Z,5.35
2017-03-13T06:00:05.530Z,5.34
2017-03-13T06:01:05.509Z,5.42
2017-03-13T06:02:05.100Z,5.55
2017-03-13T06:03:05.442Z,5.71
2017-03-13T06:04:05.075Z,5.83
2017-03-13T06:05:05.023Z,5.83
2017-03-13T06:06:05.016Z,5.81
2017-03-13T06:07:04.982Z,5.6
2017-03-13T06:08:05.337Z,5.62
2017-03-13T06:09:05.335Z,5.65
2017-03-13T06:10:04.925Z,5.67
2017-03-13T06:11:05.294Z,5.92
2017-03-13T06:12:04.892Z,6.03
2017-03-13T06:13:05.221Z,6.1
2017-03-13T06:14:05.192Z,6.14
2017-03-13T06:15:04.419Z,6.25
2017-03-13T06:16:04.764Z,6.22
2017-03-13T06:17:04.744Z,6.32
2017-03-13T06:18:05.116Z,6.29
2017-03-13T06:19:05.100Z,6.43
2017-03-13T06:20:04.690Z,6.4
2017-03-13T06:21:04.667Z,6.35
2017-03-13T06:22:05.019Z,6.3
2017-03-13T06:23:04.217Z,6.36
2017-03-13T06:24:04.998Z,6.43
2017-03-13T06:25:04.945Z,6.48
2017-03-13T06:26:04.517Z,6.57
2017-03-13T06:27:04.515Z,6.65
2017-03-13T06:28:04.485Z,6.63
2017-03-13T06:29:04.463Z,6.55
2017-03-13T06:30:04.442Z,6.48
2017-03-13T06:31:04.823Z,6.35
2017-03-13T06:32:04.782Z,6.4
2017-03-13T06:33:04.773Z,6.36
2017-03-13T06:34:04.396Z,6.37
2017-03-13T06:35:04.699Z,6.44
2017-03-13T06:36:04.700Z,6.35
2017-03-13T06:37:04.271Z,6.43
2017-03-13T06:38:04.269Z,6.45
2017-03-13T06:39:04.238Z,6.62
2017-03-13T06:40:04.608Z,6.73
2017-03-13T06:41:04.568Z,6.26
2017-03-13T06:42:04.203Z,6.26
2017-03-13T06:43:04.529Z,6.11
2017-03-13T06:44:04.126Z,5.89
2017-03-13T06:45:04.495Z,5.95
2017-03-13T06:46:04.075Z,6.06
2017-03-13T06:47:04.044Z,6.11
2017-03-13T06:48:03.654Z,6.25
2017-03-13T06:49:04.405Z,6.27
2017-03-13T06:50:03.627Z,6.4
2017-03-13T06:51:04.344Z,6.43
2017-03-13T06:52:03.532Z,6.5
2017-03-13T06:53:03.922Z,6.45
2017-03-13T06:54:03.893Z,6.63
2017-03-13T06:55:04.261Z,7.21
2017-03-13T06:56:03.839Z,7.16
2017-03-13T06:57:04.200Z,7.72
2017-03-13T06:58:03.790Z,8.39
2017-03-13T06:59:04.176Z,8.8
2017-03-13T07:00:04.145Z,9.28
2017-03-13T07:01:03.727Z,8.85
2017-03-13T07:02:04.098Z,9.29
2017-03-13T07:03:03.687Z,9.95
2017-03-13T07:04:03.655Z,9.78
2017-03-13T07:05:03.623Z,9.92
2017-03-13T07:06:03.624Z,10.01
2017-03-13T07:07:03.587Z,10.69
2017-03-13T07:08:03.964Z,10.57
2017-03-13T07:09:03.954Z,10.23
2017-03-13T07:10:03.955Z,10.47
2017-03-13T07:11:03.507Z,10.3
2017-03-13T07:12:03.871Z,10.81
2017-03-13T07:13:03.863Z,10.34
2017-03-13T07:14:03.445Z,9.52
2017-03-13T07:15:03.430Z,9.42
2017-03-13T07:16:03.419Z,9.34
2017-03-13T07:17:03.396Z,9.19
2017-03-13T07:18:03.779Z,8.94
2017-03-13T07:19:03.358Z,8.55
2017-03-13T07:20:03.341Z,8.55
2017-03-13T07:21:03.697Z,8.51
2017-03-13T07:22:03.275Z,8.88
2017-03-13T07:23:03.331Z,9.19
2017-03-13T07:24:03.246Z,8.98
2017-03-13T07:25:03.244Z,8.93
2017-03-13T07:26:03.204Z,8.69
2017-03-13T07:27:03.582Z,8.27
2017-03-13T07:28:03.544Z,8.55
2017-03-13T07:29:03.159Z,8.94
2017-03-13T07:30:03.502Z,9.22
2017-03-13T07:31:03.199Z,9.34
2017-03-13T07:32:03.464Z,9.19
2017-03-13T07:33:03.460Z,9.37
2017-03-13T07:34:03.051Z,9.52
2017-03-13T07:35:02.703Z,9.46
2017-03-13T07:36:03.001Z,9.71
2017-03-13T07:37:03.367Z,9.89
2017-03-13T07:38:02.548Z,10.1
2017-03-13T07:39:03.328Z,10.15
2017-03-13T07:40:02.907Z,10.07
2017-03-13T07:41:03.288Z,9.89
2017-03-13T07:42:02.888Z,10.13
2017-03-13T07:43:02.459Z,10.15
2017-03-13T07:44:03.237Z,10.18
2017-03-13T07:45:02.906Z,10.1
2017-03-13T07:46:03.282Z,10.16
2017-03-13T07:47:02.784Z,10.23
2017-03-13T07:48:03.193Z,10.19
2017-03-13T07:49:03.141Z,10.48
2017-03-13T07:50:03.190Z,10.99
2017-03-13T07:51:03.149Z,11.48
2017-03-13T07:52:02.691Z,11.86
2017-03-13T07:53:03.183Z,11.94
2017-03-13T07:54:02.654Z,12.06
2017-03-13T07:55:02.756Z,12.07
2017-03-13T07:56:03.052Z,12.35
2017-03-13T07:57:02.699Z,12.65
2017-03-13T07:58:02.966Z,12.45
2017-03-13T07:59:03.062Z,12.53
2017-03-13T08:00:02.558Z,12.53
2017-03-13T08:01:02.546Z,12.67
2017-03-13T08:02:02.959Z,12.65
2017-03-13T08:03:02.508Z,12.83
2017-03-13T08:04:02.865Z,13.04
2017-03-13T08:05:02.849Z,13.21
2017-03-13T08:06:02.437Z,13.11
2017-03-13T08:07:02.898Z,13.11
2017-03-13T08:08:02.844Z,12.88
2017-03-13T08:09:02.096Z,12.76
2017-03-13T08:10:02.785Z,12.4
2017-03-13T08:11:02.782Z,12.45
2017-03-13T08:12:02.737Z,12.24
2017-03-13T08:13:02.729Z,12.24
2017-03-13T08:14:02.742Z,12.17
2017-03-13T08:15:02.690Z,11.98
2017-03-13T08:16:02.297Z,11.99
2017-03-13T08:17:01.863Z,11.87
2017-03-13T08:18:02.651Z,11.83
2017-03-13T08:19:02.626Z,11.84
2017-03-13T08:20:02.750Z,11.87
2017-03-13T08:21:02.611Z,11.9
2017-03-13T08:22:02.594Z,11.87
2017-03-13T08:23:02.601Z,11.81
2017-03-13T08:24:02.598Z,11.61
2017-03-13T08:25:02.126Z,11.51
2017-03-13T08:26:02.494Z,11.54
2017-03-13T08:27:02.485Z,11.17
2017-03-13T08:28:01.685Z,10.92
2017-03-13T08:29:02.447Z,10.77
2017-03-13T08:30:02.086Z,10.96
2017-03-13T08:31:02.409Z,11.02
2017-03-13T08:32:02.014Z,11.21
2017-03-13T08:33:01.971Z,11.31
2017-03-13T08:34:02.360Z,11.43
2017-03-13T08:35:01.940Z,11.56
2017-03-13T08:36:01.919Z,11.71
2017-03-13T08:37:01.916Z,11.86
2017-03-13T08:38:01.910Z,11.98
2017-03-13T08:39:02.268Z,12.21
2017-03-13T08:40:01.890Z,12.4
2017-03-13T08:41:01.457Z,12.65
2017-03-13T08:42:02.216Z,12.71
2017-03-13T08:43:01.815Z,12.71
2017-03-13T08:44:02.174Z,12.73
2017-03-13T08:45:01.785Z,12.76
2017-03-13T08:46:01.756Z,12.73
2017-03-13T08:47:01.727Z,12.71
2017-03-13T08:48:02.104Z,12.7
2017-03-13T08:49:01.710Z,12.74
2017-03-13T08:50:02.097Z,12.82
2017-03-13T08:51:01.655Z,13.07
2017-03-13T08:52:01.635Z,13.25
2017-03-13T08:53:01.630Z,13.62
2017-03-13T08:54:01.610Z,14.15
2017-03-13T08:55:01.987Z,14.51
2017-03-13T08:56:01.578Z,14.91
2017-03-13T08:57:01.597Z,15.31
2017-03-13T08:58:01.927Z,15.76
2017-03-13T08:59:01.937Z,16.26
2017-03-13T09:00:01.924Z,16.63
2017-03-13T09:01:01.924Z,16.2
2017-03-13T09:02:01.886Z,14.85
2017-03-13T09:03:01.496Z,14.46
2017-03-13T09:04:01.867Z,14.25
2017-03-13T09:05:01.856Z,14.05
2017-03-13T09:06:01.833Z,15.1
2017-03-13T09:07:01.424Z,15.31
2017-03-13T09:08:01.808Z,16.15
2017-03-13T09:09:01.411Z,16.74
2017-03-13T09:10:01.403Z,16.23
2017-03-13T09:11:01.779Z,15.32
2017-03-13T09:12:01.761Z,15.89
2017-03-13T09:13:01.764Z,15.09
2017-03-13T09:14:01.772Z,15.42
2017-03-13T09:15:01.730Z,15.97
2017-03-13T09:16:01.347Z,16.74
2017-03-13T09:17:01.349Z,16.36
2017-03-13T09:18:01.320Z,16.05
2017-03-13T09:19:01.737Z,16.23
2017-03-13T09:20:01.337Z,17
2017-03-13T09:21:01.710Z,16.48
2017-03-13T09:22:01.687Z,16.04
2017-03-13T09:23:01.685Z,15.95
2017-03-13T09:24:01.684Z,15.92
2017-03-13T09:25:01.675Z,15.65
2017-03-13T09:26:00.903Z,16.34
2017-03-13T09:27:01.642Z,17.14
2017-03-13T09:28:01.293Z,17.74
2017-03-13T09:29:01.659Z,18.25
2017-03-13T09:30:01.622Z,18.77
2017-03-13T09:31:01.614Z,19.06
2017-03-13T09:32:01.615Z,18.97
2017-03-13T09:33:01.232Z,18.66
2017-03-13T09:34:01.306Z,19.06
2017-03-13T09:35:01.199Z,18.95
2017-03-13T09:36:01.598Z,19.43
2017-03-13T09:37:01.197Z,20.08
2017-03-13T09:38:01.584Z,19.78
2017-03-13T09:39:01.178Z,19.04
2017-03-13T09:40:01.606Z,19.21
2017-03-13T09:41:01.169Z,19.56
2017-03-13T09:42:01.255Z,19.95
2017-03-13T09:43:01.546Z,19.04
2017-03-13T09:44:01.204Z,19.4
2017-03-13T09:45:01.532Z,19.53
2017-03-13T09:46:01.523Z,19.78
2017-03-13T09:47:01.512Z,18.73
2017-03-13T09:48:01.554Z,18.87
2017-03-13T09:49:01.121Z,19.38
2017-03-13T09:50:01.113Z,19.53
2017-03-13T09:51:01.499Z,19.25
2017-03-13T09:52:01.121Z,19.23
2017-03-13T09:53:01.073Z,19.4
2017-03-13T09:54:01.459Z,20.04
2017-03-13T09:55:01.458Z,18.96
2017-03-13T09:56:01.071Z,18.1
2017-03-13T09:57:01.449Z,17.45
2017-03-13T09:58:01.453Z,17.65
2017-03-13T09:59:01.436Z,17.6
2017-03-13T10:00:01.446Z,17.87
2017-03-13T10:01:01.109Z,17.86
2017-03-13T10:02:01.407Z,18.25
2017-03-13T10:03:01.396Z,18.25
2017-03-13T10:04:01.013Z,18.45
2017-03-13T10:05:01.398Z,18.66
2017-03-13T10:06:01.383Z,18.14
2017-03-13T10:07:00.982Z,18.41
2017-03-13T10:08:00.981Z,18.52
2017-03-13T10:09:00.973Z,18.65
2017-03-13T10:10:00.975Z,18.77
2017-03-13T10:11:01.360Z,18.88
2017-03-13T10:12:01.318Z,18.92
2017-03-13T10:13:00.557Z,18.82
2017-03-13T10:14:01.330Z,18.88
2017-03-13T10:15:00.918Z,18.73
2017-03-13T10:16:01.289Z,18.7
2017-03-13T10:17:01.297Z,18.45
2017-03-13T10:18:01.285Z,18.88
2017-03-13T10:19:00.916Z,17.93
2017-03-13T10:20:00.874Z,18.41
2017-03-13T10:21:01.258Z,18.93
2017-03-13T10:22:01.345Z,19.41
2017-03-13T10:23:01.343Z,20.06
2017-03-13T10:24:01.322Z,20.23
2017-03-13T10:25:01.294Z,20.16
2017-03-13T10:26:01.216Z,19.85
2017-03-13T10:27:01.214Z,19.41
2017-03-13T10:28:00.811Z,19.58
2017-03-13T10:29:01.190Z,19.99
2017-03-13T10:30:01.181Z,19.91
2017-03-13T10:31:01.172Z,20.25
2017-03-13T10:32:00.821Z,20.23
2017-03-13T10:33:00.779Z,20.44
2017-03-13T10:34:01.148Z,20.14
2017-03-13T10:35:01.130Z,19.8
2017-03-13T10:36:01.118Z,19.77
2017-03-13T10:37:01.119Z,19.78
2017-03-13T10:38:01.106Z,19.8
2017-03-13T10:39:00.743Z,19.96
2017-03-13T10:40:00.717Z,19.91
2017-03-13T10:41:00.332Z,19.52
2017-03-13T10:42:01.073Z,19.26
2017-03-13T10:43:01.082Z,19.56
2017-03-13T10:44:00.674Z,19.19
2017-03-13T10:45:00.651Z,19.33
2017-03-13T10:46:01.035Z,19.46
2017-03-13T10:47:00.721Z,19.95
2017-03-13T10:48:01.042Z,19.92
2017-03-13T10:49:00.717Z,20.43
2017-03-13T10:50:00.619Z,20.64
2017-03-13T10:51:00.978Z,21.13
2017-03-13T10:52:00.980Z,21.44
2017-03-13T10:53:00.977Z,21.62
2017-03-13T10:54:00.970Z,21.86
2017-03-13T10:55:00.571Z,22.1
2017-03-13T10:56:00.945Z,22.3
2017-03-13T10:57:00.547Z,22.27
2017-03-13T10:58:00.926Z,22.22
2017-03-13T10:59:00.534Z,22.32
2017-03-13T11:00:00.582Z,22.08
2017-03-13T11:01:00.512Z,22.14
2017-03-13T11:02:00.511Z,21.5
2017-03-13T11:03:00.482Z,21.83
2017-03-13T11:04:00.926Z,21.99
2017-03-13T11:05:00.952Z,22.12
2017-03-13T11:06:00.873Z,22.17
2017-03-13T11:07:00.861Z,22.1
2017-03-13T11:08:00.839Z,21.97
2017-03-13T11:09:00.440Z,21.96
2017-03-13T11:10:00.815Z,21.76
2017-03-13T11:11:00.448Z,21.68
2017-03-13T11:12:00.407Z,21.9
2017-03-13T11:13:00.404Z,21.84
2017-03-13T11:14:00.393Z,21.64
2017-03-13T11:15:00.410Z,21.66
2017-03-13T11:16:00.775Z,22.02
2017-03-13T11:17:00.754Z,21.84
2017-03-13T11:18:00.743Z,21.93
2017-03-13T11:19:00.337Z,22.1
2017-03-13T11:20:00.749Z,21.36
2017-03-13T11:21:00.033Z,21.77
2017-03-13T11:22:00.320Z,22
2017-03-13T11:23:00.692Z,21.59
2017-03-13T11:24:00.682Z,21.9
2017-03-13T11:25:00.659Z,21.93
2017-03-13T11:26:00.284Z,22.06
2017-03-13T11:27:00.650Z,22.12
2017-03-13T11:28:00.337Z,21.92
2017-03-13T11:29:00.628Z,22.03
2017-03-13T11:30:00.257Z,22.17
2017-03-13T11:31:00.605Z,22.14
2017-03-13T11:32:00.616Z,22.15
2017-03-13T11:32:59.806Z,22.33
2017-03-13T11:34:00.221Z,22.47
2017-03-13T11:35:00.172Z,22.67
2017-03-13T11:36:00.214Z,22.52
2017-03-13T11:37:00.548Z,22.59
2017-03-13T11:38:00.153Z,22.62
2017-03-13T11:39:00.142Z,22.25
2017-03-13T11:40:00.502Z,22.21
2017-03-13T11:41:00.539Z,22.52
2017-03-13T11:42:00.492Z,22.43
2017-03-13T11:43:00.501Z,22.37
2017-03-13T11:44:00.564Z,22.59
2017-03-13T11:45:00.078Z,22.77
2017-03-13T11:46:00.479Z,22.69
2017-03-13T11:47:00.069Z,22.79
2017-03-13T11:48:00.447Z,22.82
2017-03-13T11:49:00.028Z,22.61
2017-03-13T11:50:00.092Z,22.45
2017-03-13T11:51:00.006Z,22.43
2017-03-13T11:52:00.384Z,22.11
2017-03-13T11:52:59.984Z,22.17
2017-03-13T11:53:59.983Z,22.3
2017-03-13T11:55:00.372Z,22.33
2017-03-13T11:56:00.345Z,22.58
2017-03-13T11:57:00.363Z,22.91
2017-03-13T11:57:59.942Z,23.14
2017-03-13T11:59:00.320Z,22.99
2017-03-13T12:00:00.296Z,22.98
2017-03-13T12:01:00.290Z,23.22
2017-03-13T12:02:00.280Z,23.14
2017-03-13T12:02:59.869Z,22.8
2017-03-13T12:04:00.262Z,22.82
2017-03-13T12:04:59.858Z,22.84
2017-03-13T12:05:59.847Z,22.82
2017-03-13T12:07:00.286Z,23.12
2017-03-13T12:08:00.206Z,23.04
2017-03-13T12:09:00.203Z,23.04
2017-03-13T12:10:00.203Z,23.28
2017-03-13T12:10:59.775Z,23.62
2017-03-13T12:12:00.184Z,23.32
2017-03-13T12:12:59.764Z,23.67
2017-03-13T12:13:59.765Z,23.35
2017-03-13T12:15:00.132Z,23.28
2017-03-13T12:15:59.743Z,22.77
2017-03-13T12:17:00.119Z,22.42
2017-03-13T12:17:59.719Z,22.22
2017-03-13T12:18:59.703Z,22.74
2017-03-13T12:20:00.081Z,23.03
2017-03-13T12:21:00.080Z,22.74
2017-03-13T12:22:00.050Z,22.92
2017-03-13T12:22:59.681Z,22.3
2017-03-13T12:24:00.026Z,22.32
2017-03-13T12:25:00.030Z,22.36
2017-03-13T12:25:59.641Z,22.35
2017-03-13T12:26:59.997Z,22.74
2017-03-13T12:27:59.997Z,22.98
2017-03-13T12:28:59.997Z,23.13
2017-03-13T12:29:59.982Z,22.33
2017-03-13T12:30:59.572Z,22.52
2017-03-13T12:31:59.563Z,22.73
2017-03-13T12:32:59.937Z,22.47
2017-03-13T12:33:59.544Z,22.85
2017-03-13T12:34:59.532Z,22.97
2017-03-13T12:35:59.509Z,22.61
2017-03-13T12:36:59.908Z,22.74
2017-03-13T12:37:59.147Z,22.08
2017-03-13T12:38:59.101Z,22.5
2017-03-13T12:39:59.865Z,22.87
2017-03-13T12:40:59.861Z,22.95
2017-03-13T12:41:59.840Z,23.03
2017-03-13T12:42:59.842Z,23.35
2017-03-13T12:43:59.431Z,23.5
2017-03-13T12:44:59.432Z,23.77
2017-03-13T12:45:59.446Z,23.89
2017-03-13T12:46:59.796Z,23.81
2017-03-13T12:47:59.044Z,23.42
2017-03-13T12:48:59.372Z,23.42
2017-03-13T12:49:59.104Z,23.59
2017-03-13T12:50:59.743Z,23.42
2017-03-13T12:54:10.001Z,23.45
2017-03-13T12:54:20.732Z,23.41
2017-03-13T12:55:20.817Z,23.63
2017-03-13T12:56:20.713Z,23.77
2017-03-13T12:57:21.096Z,23.85
2017-03-13T12:58:21.169Z,24.1
2017-03-13T12:59:21.119Z,24.1
2017-03-13T13:00:20.751Z,23.67
2017-03-13T13:01:21.037Z,23.75
2017-03-13T13:02:21.008Z,23.44
2017-03-13T13:03:20.647Z,23.44
2017-03-13T13:04:20.617Z,23.54
2017-03-13T13:05:20.195Z,23.62
2017-03-13T13:06:21.015Z,23.77
2017-03-13T13:07:20.565Z,23.8
2017-03-13T13:08:20.560Z,24
2017-03-13T13:09:20.944Z,23.28
2017-03-13T13:10:20.532Z,23.16